KFSI/FSI METAR and TAF weather

Enter ICAO airport designator
Station Type Date Time Source
KFSI METAR 2020/01/24 20:56 UTC NOAA

KFSI 242056Z AUTO 34007KT 10SM CLR 14/M03 A3006 RMK AO2 SLP179 T01381030 57030


Station Type Date Time Source
KFSI Decoded METAR 2020/01/24 20:56 UTC NOAA

Fort Sill, OK, United States (KFSI) 34-36N 098-24W 360M
Jan 24, 2020 - 03:56 PM EST / 2020.01.24 2056 UTC
Wind: from the NNW (340 degrees) at 8 MPH (7 KT):0
Visibility: 10 mile(s):0
Sky conditions: clear
Temperature: 56.8 F (13.8 C)
Dew Point: 26.6 F (-3.0 C)
Relative Humidity: 31%
Pressure (altimeter): 30.06 in. Hg (1017 hPa)
Pressure tendency: 0.09 inches (3.0 hPa) lower than three hours ago
ob: KFSI 242056Z AUTO 34007KT 10SM CLR 14/M03 A3006 RMK AO2 SLP179 T01381030 57030
cycle: 21

Station Type Date Time Source
KFSI TAF 2020/01/24 14:15 UTC NOAA

TAF KFSI 241400Z 2414/2520 33010KT 9999 SKC QNH3010INS
BECMG 2415/2416 33010G15KT 9999 SKC QNH3006INS
BECMG 2422/2423 VRB06KT 9999 SKC QNH3004INS
BECMG 2509/2510 16008KT 9999 FEW060 SCT150 QNH2998INS TX12/2421Z TN01/2415Z

Example: see airport list